Time;durP1;ratioP1;P1;durP2;ratioP2;P2;SDS_P1;SDS_P2;PMS_P1;PMS_P2;Temp;Humidity;BMP_temperature;BMP_pressure;BME280_temperature;BME280_humidity;BME280_pressure;Samples;Min_cycle;Max_cycle;Signal;HPM_P1;HPM_P2
2022/12/21 00:01:26;;;;;;;4.85;1.83;;;6.20;99.90;;;;;;5029910;28;20106;-64
2022/12/21 00:03:58;;;;;;;2.80;1.83;;;6.20;99.90;;;;;;5029897;28;20577;-64
2022/12/21 00:06:27;;;;;;;4.30;1.85;;;6.20;99.90;;;;;;5026862;28;20048;-64
2022/12/21 00:08:56;;;;;;;4.05;1.70;;;6.20;99.90;;;;;;5028473;28;20048;-64
2022/12/21 00:11:25;;;;;;;2.97;1.23;;;6.20;99.90;;;;;;5029478;28;20060;-63
2022/12/21 00:13:54;;;;;;;1.85;1.50;;;6.20;99.90;;;;;;5030497;28;20040;-64
2022/12/21 00:16:23;;;;;;;1.80;1.15;;;6.20;99.90;;;;;;5030031;28;20056;-64
2022/12/21 00:18:50;;;;;;;2.42;1.88;;;6.20;99.90;;;;;;5028433;28;20761;-64
2022/12/21 00:21:27;;;;;;;2.65;2.00;;;6.20;99.90;;;;;;5028385;28;20041;-63
2022/12/21 00:23:58;;;;;;;3.88;1.98;;;6.20;99.90;;;;;;5030174;28;20041;-64
2022/12/21 00:26:27;;;;;;;5.55;1.80;;;6.20;99.90;;;;;;5029558;28;20326;-63
2022/12/21 00:28:55;;;;;;;2.58;1.50;;;6.20;99.90;;;;;;5030314;28;20366;-63
2022/12/21 00:31:29;;;;;;;5.55;2.08;;;6.20;99.90;;;;;;5032014;28;20060;-63
2022/12/21 00:33:57;;;;;;;2.15;1.48;;;6.20;99.90;;;;;;5027643;28;20053;-64
2022/12/21 00:36:25;;;;;;;2.08;1.58;;;6.20;99.90;;;;;;5030503;28;20578;-65
2022/12/21 00:38:53;;;;;;;2.60;1.77;;;6.10;99.90;;;;;;5033589;28;20044;-64
2022/12/21 00:41:24;;;;;;;3.53;1.92;;;6.10;99.90;;;;;;5031948;28;20053;-64
2022/12/21 00:43:54;;;;;;;4.55;1.63;;;6.10;99.90;;;;;;5029867;28;20101;-64
2022/12/21 00:46:27;;;;;;;3.03;1.55;;;6.10;99.90;;;;;;5030842;28;20554;-64
2022/12/21 00:48:58;;;;;;;3.83;2.28;;;6.10;99.90;;;;;;5031284;28;20410;-65
2022/12/21 00:51:26;;;;;;;3.58;1.55;;;6.10;99.90;;;;;;5048284;28;20045;-63
2022/12/21 00:53:54;;;;;;;1.77;1.40;;;6.10;99.90;;;;;;5030440;28;20553;-64
2022/12/21 00:56:23;;;;;;;3.97;1.48;;;6.10;99.90;;;;;;5028927;28;20565;-64
2022/12/21 00:58:50;;;;;;;3.28;1.58;;;6.10;99.90;;;;;;5029779;28;20040;-66
2022/12/21 01:01:30;;;;;;;2.15;1.30;;;6.10;99.90;;;;;;5029071;28;20651;-65
2022/12/21 01:03:58;;;;;;;2.90;1.30;;;6.10;99.90;;;;;;5043790;28;20052;-65
2022/12/21 01:06:34;;;;;;;3.88;1.20;;;6.10;99.90;;;;;;5029406;28;20044;-64
2022/12/21 01:09:03;;;;;;;2.70;1.53;;;6.20;99.90;;;;;;5025375;28;20318;-63
2022/12/21 01:11:29;;;;;;;3.42;1.58;;;6.20;99.90;;;;;;5028098;28;20442;-64
2022/12/21 01:13:56;;;;;;;;;;;6.20;99.90;;;;;;5028005;28;20047;-64
2022/12/21 01:16:27;;;;;;;1.80;1.30;;;6.20;99.90;;;;;;5027485;28;20382;-64
2022/12/21 01:18:56;;;;;;;1.30;1.00;;;6.20;99.90;;;;;;5027570;28;20461;-64
2022/12/21 01:21:26;;;;;;;3.65;1.90;;;6.20;99.90;;;;;;5028721;28;20051;-64
2022/12/21 01:23:55;;;;;;;2.40;0.98;;;6.20;99.90;;;;;;5025926;28;20049;-65
2022/12/21 01:26:22;;;;;;;1.75;1.17;;;6.20;99.90;;;;;;5028277;28;20045;-65
2022/12/21 01:28:49;;;;;;;3.88;1.50;;;6.10;99.90;;;;;;5028766;28;20496;-64
2022/12/21 01:31:16;;;;;;;1.73;1.40;;;6.10;99.90;;;;;;5030101;28;20049;-64
2022/12/21 01:33:44;;;;;;;3.45;1.15;;;6.10;99.90;;;;;;5012020;28;20072;-64
2022/12/21 01:36:13;;;;;;;2.97;1.80;;;6.10;99.90;;;;;;5028118;28;20063;-63
2022/12/21 01:38:42;;;;;;;2.60;1.35;;;6.10;99.90;;;;;;5027602;28;20048;-64
2022/12/21 01:41:24;;;;;;;6.85;2.10;;;6.10;99.90;;;;;;5028565;28;20044;-65
2022/12/21 01:44:01;;;;;;;6.30;1.88;;;6.10;99.90;;;;;;5024073;28;20057;-64
2022/12/21 01:46:39;;;;;;;3.35;0.95;;;6.10;99.90;;;;;;5029092;28;20577;-64
2022/12/21 01:49:12;;;;;;;4.55;1.98;;;6.10;99.90;;;;;;5026736;28;20480;-63
2022/12/21 01:51:42;;;;;;;1.00;0.93;;;6.20;99.90;;;;;;5027959;28;20657;-65
2022/12/21 01:54:16;;;;;;;3.55;1.08;;;6.20;99.90;;;;;;5028092;28;20055;-65
2022/12/21 01:56:46;;;;;;;1.45;1.00;;;6.20;99.90;;;;;;5028087;28;20049;-63
2022/12/21 01:59:20;;;;;;;1.35;1.20;;;6.30;99.90;;;;;;5029590;28;20091;-62
2022/12/21 02:01:48;;;;;;;2.50;1.33;;;6.20;99.90;;;;;;5028852;28;20468;-64
2022/12/21 02:04:15;;;;;;;2.22;1.10;;;6.30;99.90;;;;;;5004016;28;20049;-64
2022/12/21 02:06:47;;;;;;;;;;;6.30;99.90;;;;;;5027154;28;20049;-63
2022/12/21 02:09:17;;;;;;;4.53;1.73;;;6.30;99.90;;;;;;5024387;28;19924;-65
2022/12/21 02:11:49;;;;;;;4.13;1.35;;;6.30;99.90;;;;;;5026809;28;20049;-64
2022/12/21 02:14:16;;;;;;;2.30;1.33;;;6.30;99.90;;;;;;5025317;28;20095;-64
2022/12/21 02:17:18;;;;;;;2.95;1.35;;;6.40;99.90;;;;;;5030328;28;20679;-64
2022/12/21 02:20:09;;;;;;;7.15;1.58;;;6.40;99.90;;;;;;5030063;28;20277;-64
2022/12/21 02:23:07;;;;;;;3.78;1.48;;;6.40;99.90;;;;;;5006466;28;20045;-64
2022/12/21 02:25:57;;;;;;;1.70;1.27;;;6.40;99.90;;;;;;5043089;28;20305;-64
2022/12/21 02:28:49;;;;;;;5.55;1.35;;;6.50;99.90;;;;;;5026037;28;20033;-63
2022/12/21 02:31:53;;;;;;;3.65;1.85;;;6.60;99.90;;;;;;5028782;28;20126;-64
2022/12/21 02:34:46;;;;;;;3.28;1.42;;;6.70;99.90;;;;;;5024308;28;20397;-65
2022/12/21 02:37:21;;;;;;;2.72;1.15;;;6.90;99.90;;;;;;5029122;28;20050;-63
2022/12/21 02:40:00;;;;;;;7.88;2.20;;;7.00;99.90;;;;;;5027170;28;20048;-64
2022/12/21 02:46:16;;;;;;;4.93;1.30;;;7.10;99.90;;;;;;4999124;28;20057;-64
2022/12/21 02:48:56;;;;;;;;;;;7.30;99.90;;;;;;5026997;28;20049;-63
2022/12/21 02:51:39;;;;;;;3.00;1.67;;;7.60;99.90;;;;;;5031008;28;20160;-64
2022/12/21 02:54:09;;;;;;;4.15;1.15;;;7.80;99.90;;;;;;5034358;28;20142;-63
2022/12/21 02:56:36;;;;;;;5.13;1.42;;;8.00;99.90;;;;;;5034783;28;20326;-64
2022/12/21 02:59:03;;;;;;;;;;;8.10;99.90;;;;;;5031557;28;20449;-64
2022/12/21 03:01:38;;;;;;;2.25;1.38;;;8.20;99.90;;;;;;5028824;28;19959;-65
2022/12/21 03:04:31;;;;;;;4.07;1.30;;;8.30;99.90;;;;;;5034681;28;20566;-64
2022/12/21 03:07:17;;;;;;;4.00;1.20;;;8.40;99.90;;;;;;5033892;28;20130;-66
2022/12/21 03:10:06;;;;;;;9.65;1.55;;;8.60;99.90;;;;;;5031644;28;20515;-64
2022/12/21 03:13:11;;;;;;;3.38;1.20;;;8.60;99.90;;;;;;5029817;28;20056;-63
2022/12/21 03:15:55;;;;;;;7.47;1.20;;;8.60;99.90;;;;;;5030353;28;20415;-64
2022/12/21 03:18:37;;;;;;;5.65;1.60;;;8.60;99.90;;;;;;5027706;28;20671;-64
2022/12/21 03:21:13;;;;;;;6.28;2.10;;;8.50;99.90;;;;;;5028514;28;20049;-64
2022/12/21 03:24:01;;;;;;;5.65;1.73;;;8.50;99.90;;;;;;5027214;28;20040;-64
2022/12/21 03:26:34;;;;;;;4.43;1.48;;;8.50;99.90;;;;;;5030948;28;20060;-63
2022/12/21 03:29:03;;;;;;;4.63;1.58;;;8.40;99.90;;;;;;5032230;28;20049;-64
2022/12/21 03:31:37;;;;;;;12.50;1.45;;;8.50;99.90;;;;;;5030529;28;20748;-67
2022/12/21 03:34:12;;;;;;;3.70;1.30;;;8.60;99.90;;;;;;5031003;28;20118;-63
2022/12/21 03:36:55;;;;;;;8.18;1.20;;;8.60;99.90;;;;;;5031891;28;20929;-64
2022/12/21 03:39:25;;;;;;;15.18;2.35;;;8.80;99.90;;;;;;5030836;28;20045;-63
2022/12/21 03:42:03;;;;;;;4.80;1.17;;;8.80;99.90;;;;;;5029451;28;20056;-65
2022/12/21 03:44:40;;;;;;;7.55;2.10;;;8.90;99.90;;;;;;5030762;28;20155;-65
2022/12/21 03:47:15;;;;;;;5.50;1.67;;;8.90;99.90;;;;;;5029877;28;20049;-64
2022/12/21 03:49:51;;;;;;;14.23;2.90;;;8.90;99.90;;;;;;5029923;28;20570;-63
2022/12/21 03:52:22;;;;;;;6.22;1.42;;;9.00;99.90;;;;;;5030079;28;20045;-64
2022/12/21 03:54:58;;;;;;;5.85;1.67;;;9.00;99.90;;;;;;5029719;28;20570;-65
2022/12/21 03:57:26;;;;;;;6.03;1.77;;;9.10;99.90;;;;;;5030128;28;20400;-63
2022/12/21 03:59:57;;;;;;;11.68;2.13;;;9.10;99.90;;;;;;5031638;28;20040;-63
2022/12/21 04:02:44;;;;;;;3.47;1.65;;;9.20;99.90;;;;;;5031488;28;20139;-63
2022/12/21 04:05:13;;;;;;;4.15;1.73;;;9.20;99.90;;;;;;5029401;28;20133;-63
2022/12/21 04:07:41;;;;;;;7.57;1.65;;;9.20;99.90;;;;;;5030505;28;20037;-64
2022/12/21 04:10:14;;;;;;;3.90;1.83;;;9.20;99.90;;;;;;5029509;28;20557;-63
2022/12/21 04:12:41;;;;;;;4.20;1.45;;;9.20;99.90;;;;;;5029826;28;20293;-64
2022/12/21 04:15:16;;;;;;;4.40;1.27;;;9.20;99.90;;;;;;5027798;28;20210;-63
2022/12/21 04:17:46;;;;;;;5.32;1.65;;;9.10;99.90;;;;;;5030347;28;20358;-64
2022/12/21 04:20:30;;;;;;;2.97;2.08;;;9.00;99.90;;;;;;5029807;28;20405;-64
2022/12/21 04:28:30;;;;;;;2.67;1.20;;;8.50;99.90;;;;;;5026016;28;20048;-65
2022/12/21 04:31:15;;;;;;;2.35;1.55;;;8.40;99.90;;;;;;5029219;28;20350;-64
2022/12/21 04:33:43;;;;;;;2.15;1.38;;;8.30;99.90;;;;;;5031942;28;20127;-65
2022/12/21 04:38:55;;;;;;;4.15;1.40;;;8.20;99.90;;;;;;5028040;28;20049;-63
2022/12/21 04:41:22;;;;;;;3.20;1.33;;;8.10;99.90;;;;;;5028672;28;20045;-65
2022/12/21 04:43:48;;;;;;;7.78;1.40;;;8.10;99.90;;;;;;5030558;28;20132;-65
2022/12/21 04:46:16;;;;;;;3.13;1.48;;;8.00;99.90;;;;;;5030267;28;20033;-64
2022/12/21 04:48:44;;;;;;;7.80;1.83;;;8.00;99.90;;;;;;5028565;28;20290;-64
2022/12/21 04:51:20;;;;;;;8.95;1.63;;;7.90;99.90;;;;;;5011766;28;20365;-64
2022/12/21 04:53:50;;;;;;;5.43;1.63;;;7.80;99.90;;;;;;5026195;28;20170;-63
2022/12/21 04:56:17;;;;;;;5.53;1.77;;;7.80;99.90;;;;;;5029045;28;20088;-64
2022/12/21 04:58:45;;;;;;;3.05;1.42;;;7.80;99.90;;;;;;5015429;28;20049;-64
2022/12/21 05:01:15;;;;;;;11.45;1.75;;;7.80;99.90;;;;;;5027830;28;20045;-64
2022/12/21 05:03:42;;;;;;;2.97;1.20;;;7.70;99.90;;;;;;5028562;28;20052;-64
2022/12/21 05:06:11;;;;;;;3.00;1.30;;;7.70;99.90;;;;;;5029754;28;20067;-64
2022/12/21 05:08:38;;;;;;;2.10;1.30;;;7.70;99.90;;;;;;5029225;28;20130;-65
2022/12/21 05:11:20;;;;;;;8.27;1.42;;;7.60;99.90;;;;;;5028407;28;20072;-64
2022/12/21 05:13:47;;;;;;;2.03;1.58;;;7.60;99.90;;;;;;5027878;28;20106;-64
2022/12/21 05:16:18;;;;;;;5.60;1.75;;;7.60;99.90;;;;;;5028825;28;20468;-64
2022/12/21 05:18:45;;;;;;;3.53;1.52;;;7.60;99.90;;;;;;5030098;28;20056;-63
2022/12/21 05:21:12;;;;;;;2.28;1.33;;;7.60;99.90;;;;;;5031610;28;20050;-64
2022/12/21 05:23:39;;;;;;;8.02;2.00;;;7.60;99.90;;;;;;5027288;28;20339;-64
2022/12/21 05:26:06;;;;;;;;;;;7.60;99.90;;;;;;5025190;28;20582;-63
2022/12/21 05:28:45;;;;;;;7.82;1.52;;;7.70;99.90;;;;;;5028406;28;19955;-64
2022/12/21 05:31:13;;;;;;;3.30;1.20;;;7.70;99.90;;;;;;5028223;28;20197;-63
2022/12/21 05:33:40;;;;;;;5.15;1.70;;;7.70;99.90;;;;;;5027905;28;20051;-63
2022/12/21 05:36:09;;;;;;;5.90;2.13;;;7.70;99.90;;;;;;5027383;28;20226;-64
2022/12/21 05:38:36;;;;;;;3.53;1.88;;;7.60;99.90;;;;;;5028891;28;20489;-63
2022/12/21 05:41:03;;;;;;;;;;;7.60;99.90;;;;;;5028880;28;20591;-64
2022/12/21 05:43:30;;;;;;;5.25;2.05;;;7.70;99.90;;;;;;5028525;28;19972;-64
2022/12/21 05:46:01;;;;;;;;;;;7.60;99.90;;;;;;5029617;28;20676;-64
2022/12/21 05:48:29;;;;;;;4.03;1.40;;;7.60;99.90;;;;;;5028850;28;20381;-65
2022/12/21 05:50:56;;;;;;;5.80;1.83;;;7.60;99.90;;;;;;5029261;28;20041;-65
2022/12/21 05:53:23;;;;;;;2.00;1.23;;;7.60;99.90;;;;;;5028663;28;20098;-64
2022/12/21 05:55:51;;;;;;;9.15;1.65;;;7.50;99.90;;;;;;5029039;28;20069;-64
2022/12/21 05:58:19;;;;;;;5.47;2.05;;;7.50;99.90;;;;;;5029663;28;20047;-64
2022/12/21 06:00:46;;;;;;;4.05;1.92;;;7.50;99.90;;;;;;5026687;28;20619;-64
2022/12/21 06:03:13;;;;;;;4.35;1.88;;;7.50;99.90;;;;;;5029195;28;20059;-63
2022/12/21 06:05:39;;;;;;;;;;;7.50;99.90;;;;;;5027021;28;20045;-65
2022/12/21 06:08:06;;;;;;;4.47;2.33;;;7.50;99.90;;;;;;5025988;28;20015;-64
2022/12/21 06:10:36;;;;;;;5.30;1.95;;;7.50;99.90;;;;;;5028800;28;20584;-64
2022/12/21 06:13:03;;;;;;;7.03;2.17;;;7.60;99.90;;;;;;5029530;28;20052;-64
2022/12/21 06:15:30;;;;;;;5.13;2.22;;;7.50;99.90;;;;;;5026449;28;20055;-64
2022/12/21 06:17:57;;;;;;;2.72;1.85;;;7.50;99.90;;;;;;5027405;28;20048;-63
2022/12/21 06:20:30;;;;;;;4.32;1.83;;;7.50;99.90;;;;;;5011829;28;20053;-64
2022/12/21 06:22:57;;;;;;;6.00;2.10;;;7.50;99.90;;;;;;5027023;28;20063;-64
2022/12/21 06:25:24;;;;;;;7.35;2.50;;;7.50;99.90;;;;;;5029189;28;20053;-63
2022/12/21 06:27:50;;;;;;;;;;;7.50;99.90;;;;;;5027677;28;20126;-63
2022/12/21 06:30:17;;;;;;;5.30;1.98;;;7.40;99.90;;;;;;5033424;28;19924;-62
2022/12/21 06:32:44;;;;;;;7.28;2.10;;;7.40;99.90;;;;;;5031959;28;20374;-65
2022/12/21 06:35:10;;;;;;;;;;;7.30;99.90;;;;;;5032429;28;20037;-64
2022/12/21 06:37:37;;;;;;;5.90;2.50;;;7.30;99.90;;;;;;5029975;28;19924;-66
2022/12/21 06:40:04;;;;;;;14.40;3.70;;;7.30;99.90;;;;;;5029392;28;20128;-63
2022/12/21 06:42:31;;;;;;;5.35;2.03;;;7.20;99.90;;;;;;5030318;28;20049;-63
2022/12/21 06:44:58;;;;;;;4.07;1.80;;;7.20;99.90;;;;;;5031795;28;20566;-63
2022/12/21 06:47:24;;;;;;;4.95;1.98;;;7.20;99.90;;;;;;5032217;28;20439;-65
2022/12/21 06:49:51;;;;;;;5.00;2.75;;;7.10;99.90;;;;;;5033921;28;20048;-63
2022/12/21 06:52:20;;;;;;;6.13;2.45;;;7.10;99.90;;;;;;5029908;28;20440;-63
2022/12/21 06:54:47;;;;;;;9.20;2.17;;;7.00;99.90;;;;;;5029733;28;20555;-63
2022/12/21 06:57:14;;;;;;;;;;;7.00;99.90;;;;;;5030778;28;20052;-63
2022/12/21 06:59:40;;;;;;;4.32;2.17;;;7.00;99.90;;;;;;5030718;28;19958;-64
2022/12/21 07:02:08;;;;;;;;;;;6.90;99.90;;;;;;5031362;28;20056;-63
2022/12/21 07:04:35;;;;;;;;;;;6.90;99.90;;;;;;5029501;28;20459;-63
2022/12/21 07:07:02;;;;;;;11.10;2.83;;;6.90;99.90;;;;;;5032345;28;19928;-63
2022/12/21 07:09:28;;;;;;;3.38;2.45;;;6.80;99.90;;;;;;5031559;28;20043;-54
2022/12/21 07:11:55;;;;;;;7.47;2.95;;;6.80;99.90;;;;;;5029676;28;20042;-49
2022/12/21 07:14:22;;;;;;;6.95;2.40;;;6.80;99.90;;;;;;5030280;28;20064;-51
2022/12/21 07:16:49;;;;;;;;;;;6.80;99.90;;;;;;5032161;28;20049;-53
2022/12/21 07:19:15;;;;;;;8.15;3.38;;;6.70;99.90;;;;;;5031066;28;19925;-55
2022/12/21 07:21:42;;;;;;;;;;;6.70;99.90;;;;;;5032744;28;20053;-52
2022/12/21 07:24:09;;;;;;;8.35;3.35;;;6.70;99.90;;;;;;5030461;28;20386;-53
2022/12/21 07:26:36;;;;;;;7.82;3.00;;;6.70;99.90;;;;;;5030042;28;20574;-52
2022/12/21 07:29:02;;;;;;;6.32;3.03;;;6.70;99.90;;;;;;5028716;28;20064;-52
2022/12/21 07:31:29;;;;;;;2.63;2.42;;;6.70;99.90;;;;;;5031624;28;20038;-51
2022/12/21 07:33:56;;;;;;;7.75;3.95;;;6.70;99.90;;;;;;5031655;28;20048;-53
2022/12/21 07:36:23;;;;;;;8.75;3.60;;;6.70;99.90;;;;;;5030540;28;20061;-48
2022/12/21 07:38:50;;;;;;;10.15;3.85;;;6.70;99.90;;;;;;5029455;28;20072;-52
2022/12/21 07:41:17;;;;;;;6.85;3.85;;;6.60;99.90;;;;;;5031517;28;20045;-52
2022/12/21 07:43:45;;;;;;;7.50;3.38;;;6.70;99.90;;;;;;5026392;28;20064;-53
2022/12/21 07:46:16;;;;;;;11.23;4.32;;;6.60;99.90;;;;;;5031243;28;20197;-52
2022/12/21 07:48:43;;;;;;;10.05;3.80;;;6.60;99.90;;;;;;5030930;28;20131;-55
2022/12/21 07:51:10;;;;;;;5.78;3.97;;;6.60;99.90;;;;;;5031340;28;20707;-54
2022/12/21 07:53:38;;;;;;;8.68;4.50;;;6.70;99.90;;;;;;5029696;28;20048;-54
2022/12/21 07:56:10;;;;;;;7.82;3.80;;;6.60;99.90;;;;;;5030145;28;20601;-53
2022/12/21 07:58:37;;;;;;;11.48;4.55;;;6.60;99.90;;;;;;5031350;28;20045;-55
2022/12/21 08:01:06;;;;;;;9.32;3.75;;;6.70;99.90;;;;;;5029955;28;20491;-53
2022/12/21 08:03:35;;;;;;;5.10;3.53;;;6.70;99.90;;;;;;5029890;28;20109;-51
2022/12/21 08:06:03;;;;;;;5.47;3.15;;;6.70;99.90;;;;;;5029336;28;20356;-52
2022/12/21 08:08:30;;;;;;;6.25;3.80;;;6.70;99.90;;;;;;5029459;28;20323;-53
2022/12/21 08:10:57;;;;;;;10.20;3.90;;;6.70;99.90;;;;;;5031300;28;20518;-52
2022/12/21 08:13:24;;;;;;;11.50;3.78;;;6.70;99.90;;;;;;5029476;28;20049;-49
2022/12/21 08:16:01;;;;;;;12.85;6.10;;;6.60;99.90;;;;;;5030976;28;20076;-50
2022/12/21 08:18:28;;;;;;;8.65;4.22;;;6.60;99.90;;;;;;5028791;28;20106;-48
2022/12/21 08:20:56;;;;;;;16.25;3.63;;;6.60;99.90;;;;;;5030765;28;20045;-54
2022/12/21 08:23:23;;;;;;;9.15;4.05;;;6.70;99.90;;;;;;5029280;28;20410;-48
2022/12/21 08:25:50;;;;;;;5.82;3.45;;;6.70;99.90;;;;;;5025429;28;20435;-53
2022/12/21 08:28:18;;;;;;;7.85;3.42;;;6.70;99.90;;;;;;5027331;28;20514;-53
2022/12/21 08:30:45;;;;;;;7.03;3.97;;;6.70;99.90;;;;;;5028047;28;20426;-55
2022/12/21 08:33:11;;;;;;;5.40;3.90;;;6.70;99.90;;;;;;5030819;28;20510;-50
2022/12/21 08:35:40;;;;;;;8.88;3.20;;;6.70;99.90;;;;;;5028775;28;20036;-53
2022/12/21 08:38:07;;;;;;;8.68;4.00;;;6.70;99.90;;;;;;5027496;28;20044;-49
2022/12/21 08:40:34;;;;;;;5.72;4.10;;;6.70;99.90;;;;;;5031147;28;20582;-51
2022/12/21 08:43:01;;;;;;;10.60;3.47;;;6.80;99.90;;;;;;5028712;28;20044;-52
2022/12/21 08:45:28;;;;;;;7.47;3.80;;;6.80;99.90;;;;;;5028712;28;20459;-51
2022/12/21 08:47:54;;;;;;;6.57;3.38;;;6.80;99.90;;;;;;5027225;28;20043;-52
2022/12/21 08:50:21;;;;;;;4.50;2.97;;;6.80;99.90;;;;;;5027747;28;20522;-53
2022/12/21 08:52:48;;;;;;;3.92;2.38;;;6.90;99.90;;;;;;5029866;28;20757;-51
2022/12/21 08:55:15;;;;;;;5.55;2.80;;;6.90;99.90;;;;;;5030306;28;20080;-50
2022/12/21 08:57:42;;;;;;;6.80;2.47;;;7.00;99.90;;;;;;5028453;28;20114;-52
2022/12/21 09:00:12;;;;;;;;;;;7.00;99.90;;;;;;5030560;28;20138;-50
2022/12/21 09:02:38;;;;;;;9.45;3.10;;;7.00;99.90;;;;;;5030128;28;19925;-56
2022/12/21 09:05:06;;;;;;;6.18;3.15;;;7.00;99.90;;;;;;5027107;28;20248;-53
2022/12/21 09:07:33;;;;;;;10.15;3.40;;;7.00;99.90;;;;;;5028990;28;20041;-53
2022/12/21 09:10:00;;;;;;;11.38;3.00;;;7.10;99.90;;;;;;5029076;28;20064;-53
2022/12/21 09:12:27;;;;;;;9.95;4.03;;;7.10;99.90;;;;;;5028764;28;20051;-51
2022/12/21 09:14:54;;;;;;;12.32;3.50;;;7.10;99.90;;;;;;5027758;28;20045;-54
2022/12/21 09:17:20;;;;;;;;;;;7.10;99.90;;;;;;5027795;28;20059;-52
2022/12/21 09:19:54;;;;;;;5.05;2.95;;;7.10;99.90;;;;;;5029262;28;20011;-53
2022/12/21 09:22:23;;;;;;;;;;;7.10;99.90;;;;;;5028216;28;20044;-50
2022/12/21 09:24:50;;;;;;;2.97;2.30;;;7.20;99.90;;;;;;5027823;28;19924;-53
2022/12/21 09:27:17;;;;;;;6.53;2.78;;;7.20;99.90;;;;;;5029221;28;20044;-53
2022/12/21 09:29:44;;;;;;;4.35;2.40;;;7.20;99.90;;;;;;5021375;28;20037;-51
2022/12/21 09:32:11;;;;;;;5.07;2.70;;;7.30;99.90;;;;;;5027511;28;20278;-51
2022/12/21 09:34:38;;;;;;;;;;;7.30;99.90;;;;;;5028476;28;20041;-53
2022/12/21 09:37:05;;;;;;;8.98;2.65;;;7.30;99.90;;;;;;5028640;28;20394;-48
2022/12/21 09:39:52;;;;;;;2.95;2.10;;;7.40;99.90;;;;;;5025314;28;20040;-49
2022/12/21 09:42:44;;;;;;;5.72;2.55;;;7.40;99.90;;;;;;5028462;28;20049;-48
2022/12/21 09:45:29;;;;;;;1.80;1.70;;;7.40;99.90;;;;;;4993551;28;20061;-49
2022/12/21 09:48:03;;;;;;;2.78;1.95;;;7.50;99.90;;;;;;5027225;28;20041;-48
2022/12/21 09:50:44;;;;;;;4.78;2.30;;;7.50;99.90;;;;;;5028420;28;20474;-52
2022/12/21 09:53:32;;;;;;;5.07;2.20;;;7.50;99.90;;;;;;5027962;28;20107;-52
2022/12/21 09:56:00;;;;;;;5.10;2.47;;;7.60;99.90;;;;;;5030619;28;20554;-53
2022/12/21 09:58:42;;;;;;;7.40;2.22;;;7.60;99.90;;;;;;5024931;28;20049;-52
2022/12/21 10:01:29;;;;;;;5.03;2.08;;;7.70;99.90;;;;;;5031652;28;20080;-51
2022/12/21 10:04:11;;;;;;;3.22;2.15;;;7.70;99.90;;;;;;5032103;28;20395;-47
2022/12/21 10:06:54;;;;;;;3.50;2.45;;;7.70;99.90;;;;;;5030747;28;20095;-48
2022/12/21 10:09:27;;;;;;;3.70;2.15;;;7.80;99.90;;;;;;5030970;28;20083;-48
2022/12/21 10:12:00;;;;;;;2.40;1.70;;;7.80;99.90;;;;;;5030713;28;20168;-51
2022/12/21 10:14:53;;;;;;;3.53;2.33;;;7.80;99.90;;;;;;5030953;28;20040;-51
2022/12/21 10:17:36;;;;;;;1.67;1.35;;;7.90;99.90;;;;;;5032410;28;20056;-47
2022/12/21 10:20:22;;;;;;;6.63;2.20;;;7.90;99.90;;;;;;5031374;28;20132;-49
2022/12/21 10:22:53;;;;;;;7.35;2.60;;;8.00;99.90;;;;;;5032309;28;20072;-47
2022/12/21 10:25:42;;;;;;;4.03;2.55;;;8.00;99.90;;;;;;5030292;28;20098;-47
2022/12/21 10:28:22;;;;;;;4.15;2.80;;;8.10;99.90;;;;;;5031346;28;20041;-47
2022/12/21 10:31:04;;;;;;;5.60;3.53;;;8.10;99.90;;;;;;5029522;28;20044;-49
2022/12/21 10:33:36;;;;;;;5.95;3.60;;;8.20;99.90;;;;;;5033014;28;20571;-47
2022/12/21 10:36:05;;;;;;;4.55;3.33;;;8.20;99.90;;;;;;5030842;28;20033;-50
2022/12/21 10:38:33;;;;;;;6.63;3.10;;;8.20;99.90;;;;;;5031667;28;20067;-50
2022/12/21 10:41:07;;;;;;;8.98;4.30;;;8.20;99.90;;;;;;5034700;28;20056;-51
2022/12/21 10:43:38;;;;;;;14.38;5.05;;;8.30;99.90;;;;;;5030942;28;20767;-48
2022/12/21 10:46:05;;;;;;;13.43;4.75;;;8.20;99.90;;;;;;5030739;28;20598;-48
2022/12/21 10:48:33;;;;;;;13.75;5.25;;;8.30;99.90;;;;;;5030807;28;20532;-55
2022/12/21 10:51:17;;;;;;;16.38;4.97;;;8.30;99.90;;;;;;5034100;28;20544;-47
2022/12/21 10:54:06;;;;;;;8.73;3.92;;;8.20;99.90;;;;;;5031638;28;20091;-49
2022/12/21 10:56:45;;;;;;;11.98;5.00;;;8.20;99.90;;;;;;5030736;28;20052;-51
2022/12/21 10:59:20;;;;;;;14.30;5.75;;;8.20;99.90;;;;;;5032068;28;20049;-49
2022/12/21 11:01:47;;;;;;;13.13;5.35;;;8.30;99.90;;;;;;5030895;28;20475;-52
2022/12/21 11:04:21;;;;;;;8.68;4.95;;;8.30;99.90;;;;;;5031533;28;20041;-49
2022/12/21 11:06:59;;;;;;;9.90;4.40;;;8.30;99.90;;;;;;5030374;28;20041;-53
2022/12/21 11:09:58;;;;;;;10.47;4.70;;;8.30;99.90;;;;;;5031957;28;20037;-49
2022/12/21 11:12:52;;;;;;;10.45;6.28;;;8.30;99.90;;;;;;5031742;28;20075;-51
2022/12/21 11:15:23;;;;;;;8.90;5.00;;;8.30;99.90;;;;;;5030500;28;20095;-53
2022/12/21 11:18:41;;;;;;;9.18;3.40;;;8.40;99.90;;;;;;5029623;28;20511;-50
2022/12/21 11:21:29;;;;;;;5.47;3.40;;;8.40;99.90;;;;;;5005451;28;20447;-51
2022/12/21 11:23:59;;;;;;;7.10;5.53;;;8.50;99.90;;;;;;5032724;28;20106;-51
2022/12/21 11:26:30;;;;;;;8.95;5.97;;;8.60;99.90;;;;;;5031519;28;20067;-51
2022/12/21 11:29:13;;;;;;;7.32;4.47;;;8.60;99.90;;;;;;5031477;28;20032;-49
2022/12/21 11:31:40;;;;;;;5.88;3.38;;;8.70;99.90;;;;;;5029020;28;20160;-51
2022/12/21 11:34:25;;;;;;;6.03;3.42;;;8.70;99.90;;;;;;5028842;28;20107;-51
2022/12/21 11:36:57;;;;;;;5.70;4.25;;;8.80;99.90;;;;;;5032185;28;20260;-46
2022/12/21 11:39:24;;;;;;;5.85;2.47;;;8.80;99.90;;;;;;5027880;28;20132;-52
2022/12/21 11:41:53;;;;;;;10.13;2.67;;;8.80;99.90;;;;;;5026928;28;20824;-51
2022/12/21 11:44:30;;;;;;;7.63;2.33;;;8.80;99.90;;;;;;5029115;28;20044;-52
2022/12/21 11:47:35;;;;;;;7.72;2.78;;;8.80;99.90;;;;;;5029516;28;20136;-50
2022/12/21 11:50:17;;;;;;;2.70;1.88;;;8.80;99.90;;;;;;5026278;28;20122;-58
2022/12/21 11:53:06;;;;;;;5.47;2.85;;;8.90;99.90;;;;;;5030918;28;20469;-57
2022/12/21 11:55:46;;;;;;;5.18;1.88;;;8.90;99.90;;;;;;5032071;28;20402;-50
2022/12/21 11:58:12;;;;;;;3.72;1.80;;;8.90;99.90;;;;;;5028431;28;20373;-49
2022/12/21 12:01:08;;;;;;;3.78;2.38;;;8.90;99.90;;;;;;5031810;28;20167;-52
2022/12/21 12:03:41;;;;;;;5.07;2.17;;;8.90;99.90;;;;;;5025362;28;20060;-57
2022/12/21 12:06:44;;;;;;;5.63;2.42;;;8.90;99.90;;;;;;5031289;28;20406;-53
2022/12/21 12:09:28;;;;;;;3.85;2.72;;;8.90;99.90;;;;;;5028762;28;20513;-50
2022/12/21 12:12:05;;;;;;;3.65;2.65;;;8.90;99.90;;;;;;5028798;28;20103;-51
2022/12/21 12:14:38;;;;;;;4.60;2.65;;;8.90;99.90;;;;;;5031423;28;20418;-49
2022/12/21 12:17:19;;;;;;;3.83;2.10;;;8.90;99.90;;;;;;5028605;28;20053;-51
2022/12/21 12:20:16;;;;;;;3.90;2.30;;;8.90;99.90;;;;;;5031505;28;20037;-51
2022/12/21 12:23:02;;;;;;;4.07;2.53;;;8.90;99.90;;;;;;5028194;28;20998;-49
2022/12/21 12:25:55;;;;;;;4.82;2.70;;;8.80;99.90;;;;;;5028850;28;20041;-51
2022/12/21 12:28:41;;;;;;;6.13;2.53;;;8.80;99.90;;;;;;5019359;28;20418;-51
2022/12/21 12:31:18;;;;;;;6.80;2.65;;;8.80;99.90;;;;;;5031416;28;20037;-49
2022/12/21 12:33:54;;;;;;;3.60;2.22;;;8.80;99.90;;;;;;5027736;28;20037;-49
2022/12/21 12:36:41;;;;;;;5.15;2.40;;;8.80;99.90;;;;;;5027960;28;20126;-50
2022/12/21 12:39:25;;;;;;;3.75;2.30;;;8.70;99.90;;;;;;5028033;28;20068;-52
2022/12/21 12:42:25;;;;;;;3.75;2.10;;;8.70;99.90;;;;;;5028176;28;20044;-52
2022/12/21 12:45:11;;;;;;;4.47;2.25;;;8.60;99.90;;;;;;5029443;28;20558;-51
2022/12/21 12:48:04;;;;;;;2.00;1.80;;;8.60;99.90;;;;;;5022681;28;20537;-52
2022/12/21 12:50:41;;;;;;;3.65;2.22;;;8.60;99.90;;;;;;5027936;28;20600;-51
2022/12/21 12:53:35;;;;;;;5.05;2.78;;;8.50;99.90;;;;;;5025643;28;20044;-52
2022/12/21 12:56:23;;;;;;;6.32;3.00;;;8.50;99.90;;;;;;5027474;28;20048;-49
2022/12/21 12:59:12;;;;;;;7.47;2.58;;;8.50;99.90;;;;;;5028949;28;20478;-49
2022/12/21 13:01:58;;;;;;;3.47;2.00;;;8.40;99.90;;;;;;5027555;28;20138;-48
2022/12/21 13:04:47;;;;;;;6.05;2.55;;;8.40;99.90;;;;;;5010423;28;20056;-52
2022/12/21 13:07:52;;;;;;;2.42;1.55;;;8.40;99.90;;;;;;5026911;28;20504;-50
2022/12/21 13:10:39;;;;;;;1.50;1.38;;;8.40;99.90;;;;;;5030645;28;20072;-49
2022/12/21 13:13:12;;;;;;;2.97;2.33;;;8.40;99.90;;;;;;5024791;28;20646;-53
2022/12/21 13:15:57;;;;;;;2.08;1.80;;;8.40;99.90;;;;;;5026948;28;20149;-52
2022/12/21 13:18:33;;;;;;;3.47;1.95;;;8.40;99.90;;;;;;5025755;28;20044;-53
2022/12/21 13:21:01;;;;;;;2.38;1.80;;;8.40;99.90;;;;;;5028521;28;20387;-54
2022/12/21 13:23:41;;;;;;;3.47;2.00;;;8.30;99.90;;;;;;5028703;28;20246;-50
2022/12/21 13:26:27;;;;;;;3.75;1.77;;;8.30;99.90;;;;;;5026714;28;20584;-52
2022/12/21 13:29:32;;;;;;;3.95;1.95;;;8.40;99.90;;;;;;5028010;28;20052;-52
2022/12/21 13:32:09;;;;;;;2.97;1.52;;;8.30;99.90;;;;;;5025552;28;20041;-49
2022/12/21 13:34:50;;;;;;;3.60;1.70;;;8.40;99.90;;;;;;5025681;28;20044;-49
2022/12/21 13:37:21;;;;;;;1.85;1.42;;;8.40;99.90;;;;;;5027784;28;20430;-52
2022/12/21 13:40:08;;;;;;;2.58;1.85;;;8.40;99.90;;;;;;5027856;28;20520;-50
2022/12/21 13:42:42;;;;;;;3.53;1.48;;;8.40;99.90;;;;;;5028613;28;20336;-51
2022/12/21 13:45:40;;;;;;;2.50;1.48;;;8.40;99.90;;;;;;5027031;28;20533;-50
2022/12/21 13:48:17;;;;;;;5.40;2.10;;;8.40;99.90;;;;;;5028355;28;20129;-52